Time;durP1;ratioP1;P1;durP2;ratioP2;P2;SDS_P1;SDS_P2;PMS_P1;PMS_P2;Temp;Humidity;BMP_temperature;BMP_pressure;BME280_temperature;BME280_humidity;BME280_pressure;Samples;Min_cycle;Max_cycle;Signal;HPM_P1;HPM_P2
2022/07/18 00:02:02;;;;;;;2.22;0.90;;;21.10;36.00;;;;;;2316321;54;20985;-73
2022/07/18 00:04:28;;;;;;;2.15;0.93;;;21.10;36.10;;;;;;2329984;53;21840;-76
2022/07/18 00:06:55;;;;;;;1.55;0.60;;;21.10;36.20;;;;;;2294439;54;20963;-73
2022/07/18 00:09:23;;;;;;;1.42;0.65;;;21.00;36.20;;;;;;2286625;54;21233;-72
2022/07/18 00:11:52;;;;;;;2.10;0.80;;;21.00;36.20;;;;;;2538123;54;20986;-72
2022/07/18 00:14:26;;;;;;;1.77;0.80;;;21.00;36.30;;;;;;2545939;53;20994;-74
2022/07/18 00:16:53;;;;;;;1.35;0.70;;;21.00;36.30;;;;;;2314765;54;21072;-73
2022/07/18 00:19:20;;;;;;;1.02;0.50;;;20.90;36.30;;;;;;2495299;53;21753;-73
2022/07/18 00:21:47;;;;;;;1.45;0.65;;;20.90;36.30;;;;;;2341354;54;20968;-73
2022/07/18 00:24:14;;;;;;;1.77;0.80;;;20.80;36.30;;;;;;2377760;53;20989;-72
2022/07/18 00:26:41;;;;;;;2.35;0.80;;;20.80;36.30;;;;;;2342533;54;20959;-76
2022/07/18 00:29:07;;;;;;;1.25;0.65;;;20.80;36.50;;;;;;2325391;53;21089;-73
2022/07/18 00:31:33;;;;;;;1.42;0.62;;;20.80;36.50;;;;;;2324406;54;20983;-73
2022/07/18 00:34:00;;;;;;;2.28;0.80;;;20.70;36.50;;;;;;2333376;54;20954;-73
2022/07/18 00:36:27;;;;;;;2.20;0.82;;;20.70;36.60;;;;;;2343655;54;21766;-72
2022/07/18 00:38:54;;;;;;;2.05;0.80;;;20.60;36.60;;;;;;2337511;54;21477;-73
2022/07/18 00:41:23;;;;;;;1.77;0.73;;;20.60;36.80;;;;;;2332681;53;21006;-72
2022/07/18 00:43:49;;;;;;;1.62;0.80;;;20.60;36.90;;;;;;2309322;54;20954;-72
2022/07/18 00:46:16;;;;;;;1.52;0.60;;;20.50;36.90;;;;;;2336033;53;20982;-72
2022/07/18 00:48:42;;;;;;;1.55;0.70;;;20.50;36.90;;;;;;2327045;54;21468;-73
2022/07/18 00:51:09;;;;;;;2.05;0.88;;;20.50;37.00;;;;;;2337920;53;20943;-75
2022/07/18 00:53:35;;;;;;;2.00;0.70;;;20.50;37.70;;;;;;2518924;53;20996;-72
2022/07/18 00:56:02;;;;;;;1.42;0.70;;;20.40;37.00;;;;;;2343224;54;20939;-73
2022/07/18 00:58:30;;;;;;;1.65;0.70;;;20.40;37.00;;;;;;2342547;54;21006;-76
2022/07/18 01:03:42;;;;;;;2.05;0.90;;;20.30;37.20;;;;;;2328374;53;20975;-73
2022/07/18 01:06:11;;;;;;;1.20;0.57;;;20.20;37.20;;;;;;2553849;53;21023;-71
2022/07/18 01:08:38;;;;;;;1.62;0.77;;;20.20;37.20;;;;;;2337534;53;20931;-72
2022/07/18 01:11:05;;;;;;;3.75;0.80;;;20.20;37.30;;;;;;2342413;54;21037;-73
2022/07/18 01:13:31;;;;;;;2.12;0.62;;;20.10;37.30;;;;;;2549879;53;20963;-73
2022/07/18 01:16:01;;;;;;;1.70;0.80;;;20.10;37.40;;;;;;2321621;54;20993;-72
2022/07/18 01:18:28;;;;;;;1.67;0.80;;;20.00;37.30;;;;;;2336476;53;20967;-73
2022/07/18 01:20:54;;;;;;;1.83;0.80;;;20.00;37.70;;;;;;2342853;54;21493;-73
2022/07/18 01:23:20;;;;;;;1.65;0.80;;;20.00;37.80;;;;;;2327522;54;20939;-74
2022/07/18 01:25:46;;;;;;;2.47;0.90;;;19.90;37.70;;;;;;2329717;53;20915;-70
2022/07/18 01:28:14;;;;;;;1.48;0.70;;;19.90;37.80;;;;;;2320512;53;20951;-72
2022/07/18 01:30:41;;;;;;;2.03;0.75;;;19.90;37.90;;;;;;2478812;53;20981;-72
2022/07/18 01:33:09;;;;;;;1.35;0.60;;;19.80;37.90;;;;;;2332311;53;21025;-75
2022/07/18 01:35:38;;;;;;;1.60;0.70;;;19.80;38.00;;;;;;2335280;54;21024;-74
2022/07/18 01:38:06;;;;;;;1.92;0.82;;;19.80;38.10;;;;;;2339142;54;21825;-73
2022/07/18 01:40:34;;;;;;;2.00;0.80;;;19.70;38.00;;;;;;2341561;54;21403;-75
2022/07/18 01:43:03;;;;;;;1.40;0.62;;;19.70;38.10;;;;;;2340508;54;21039;-72
2022/07/18 01:45:29;;;;;;;2.20;0.93;;;19.70;38.10;;;;;;2579040;53;21557;-72
2022/07/18 01:47:56;;;;;;;2.72;0.98;;;19.60;38.20;;;;;;2342539;54;21036;-72
2022/07/18 01:50:22;;;;;;;1.95;0.98;;;19.60;38.20;;;;;;2339350;54;21408;-73
2022/07/18 01:52:49;;;;;;;1.62;0.70;;;19.60;38.30;;;;;;2340371;54;20959;-74
2022/07/18 01:55:18;;;;;;;2.22;0.90;;;19.50;38.20;;;;;;2344423;54;20988;-74
2022/07/18 01:57:45;;;;;;;1.45;0.70;;;19.50;38.40;;;;;;2342024;53;21018;-76
2022/07/18 02:00:12;;;;;;;1.73;0.73;;;19.50;38.40;;;;;;2340876;54;21359;-75
2022/07/18 02:02:41;;;;;;;1.95;0.90;;;19.40;38.40;;;;;;2533111;53;20951;-73
2022/07/18 02:05:08;;;;;;;1.15;0.60;;;19.40;38.50;;;;;;2320301;53;20912;-73
2022/07/18 02:07:37;;;;;;;1.87;0.70;;;19.30;38.50;;;;;;2340149;54;21607;-72
2022/07/18 02:10:09;;;;;;;1.50;0.70;;;19.30;38.60;;;;;;2345163;53;21025;-72
2022/07/18 02:12:35;;;;;;;1.92;0.75;;;19.30;38.90;;;;;;2324094;53;21019;-71
2022/07/18 02:15:03;;;;;;;2.22;0.68;;;19.20;38.70;;;;;;2313149;53;20953;-72
2022/07/18 02:17:30;;;;;;;2.35;0.88;;;19.20;38.70;;;;;;2340598;54;21805;-73
2022/07/18 02:19:56;;;;;;;1.42;0.60;;;19.20;38.80;;;;;;2323497;53;21062;-73
2022/07/18 02:22:23;;;;;;;2.65;0.90;;;19.10;39.00;;;;;;2317938;54;20954;-72
2022/07/18 02:24:51;;;;;;;0.85;0.50;;;19.10;38.90;;;;;;2324509;53;21053;-72
2022/07/18 02:27:17;;;;;;;1.62;0.70;;;19.10;39.00;;;;;;2330019;53;21063;-72
2022/07/18 02:29:43;;;;;;;2.33;0.80;;;19.00;38.90;;;;;;2332831;53;20935;-71
2022/07/18 02:32:10;;;;;;;1.20;0.50;;;19.00;39.00;;;;;;2329801;53;20952;-76
2022/07/18 02:34:36;;;;;;;1.40;0.75;;;19.00;39.00;;;;;;2336203;54;20967;-74
2022/07/18 02:37:06;;;;;;;2.33;0.70;;;18.90;39.10;;;;;;2317266;54;20962;-76
2022/07/18 02:39:33;;;;;;;3.03;0.70;;;18.90;39.10;;;;;;2563917;53;21070;-74
2022/07/18 02:42:00;;;;;;;2.03;0.82;;;18.90;39.20;;;;;;2324754;53;21866;-73
2022/07/18 02:44:26;;;;;;;1.85;0.80;;;18.90;39.60;;;;;;2564183;53;20939;-74
2022/07/18 02:46:53;;;;;;;2.42;0.80;;;18.80;39.60;;;;;;2330655;54;21059;-74
2022/07/18 02:49:28;;;;;;;2.75;0.95;;;18.80;39.60;;;;;;2317055;53;20978;-74
2022/07/18 02:51:56;;;;;;;1.50;0.70;;;18.80;39.70;;;;;;2450730;53;21042;-73
2022/07/18 02:54:22;;;;;;;2.20;0.80;;;18.80;39.70;;;;;;2428532;53;20945;-72
2022/07/18 02:56:49;;;;;;;1.70;0.77;;;18.70;39.70;;;;;;2332231;54;21014;-73
2022/07/18 02:59:15;;;;;;;2.35;0.98;;;18.70;39.80;;;;;;2330776;53;21002;-73
2022/07/18 03:01:42;;;;;;;1.52;0.70;;;18.70;39.80;;;;;;2390577;54;21011;-74
2022/07/18 03:04:08;;;;;;;2.15;0.75;;;18.70;39.80;;;;;;2338461;53;20955;-73
2022/07/18 03:06:35;;;;;;;2.20;0.90;;;18.60;39.80;;;;;;2325596;54;20923;-73
2022/07/18 03:09:02;;;;;;;2.00;0.80;;;18.60;39.90;;;;;;2342794;54;21003;-74
2022/07/18 03:11:28;;;;;;;1.75;0.65;;;18.60;40.00;;;;;;2315531;54;21040;-71
2022/07/18 03:13:55;;;;;;;1.90;0.80;;;18.60;40.00;;;;;;2324925;55;21818;-72
2022/07/18 03:16:21;;;;;;;1.35;0.62;;;18.50;39.90;;;;;;2295332;54;21035;-72
2022/07/18 03:18:47;;;;;;;1.73;0.73;;;18.50;40.00;;;;;;2316793;54;20948;-73
2022/07/18 03:21:14;;;;;;;1.50;0.68;;;18.50;40.00;;;;;;2314093;54;21031;-72
2022/07/18 03:23:40;;;;;;;2.75;0.98;;;18.50;40.10;;;;;;2304329;54;20927;-72
2022/07/18 03:26:06;;;;;;;1.55;0.68;;;18.40;40.10;;;;;;2318801;54;21062;-73
2022/07/18 03:28:33;;;;;;;2.28;0.80;;;18.40;40.30;;;;;;2300944;54;20954;-73
2022/07/18 03:30:59;;;;;;;2.22;0.80;;;18.40;40.40;;;;;;2316573;53;21017;-72
2022/07/18 03:33:26;;;;;;;2.97;0.70;;;18.40;40.40;;;;;;2320890;54;21098;-73
2022/07/18 03:35:52;;;;;;;2.97;0.82;;;18.30;40.30;;;;;;2547594;54;21028;-74
2022/07/18 03:38:20;;;;;;;1.80;0.80;;;18.30;40.40;;;;;;2306085;54;20927;-73
2022/07/18 03:40:47;;;;;;;2.30;0.93;;;18.30;40.40;;;;;;2306450;54;21104;-74
2022/07/18 03:43:14;;;;;;;2.00;0.80;;;18.30;40.50;;;;;;2288333;54;21900;-73
2022/07/18 03:45:41;;;;;;;1.55;0.80;;;18.30;40.50;;;;;;2280789;54;20965;-73
2022/07/18 03:48:11;;;;;;;1.75;0.70;;;18.30;40.60;;;;;;2296137;55;21037;-73
2022/07/18 03:50:37;;;;;;;1.65;0.80;;;18.20;40.60;;;;;;2279106;55;20967;-73
2022/07/18 03:53:03;;;;;;;1.83;0.80;;;18.20;40.60;;;;;;2313650;54;20990;-75
2022/07/18 03:55:31;;;;;;;2.15;0.80;;;18.20;40.70;;;;;;2554709;53;21479;-73
2022/07/18 03:57:58;;;;;;;1.70;0.90;;;18.10;40.70;;;;;;2304359;55;20974;-73
2022/07/18 04:00:24;;;;;;;2.12;0.90;;;18.10;40.70;;;;;;2306457;54;21002;-75
2022/07/18 04:02:51;;;;;;;1.83;0.80;;;18.10;40.80;;;;;;2298392;55;21480;-74
2022/07/18 04:05:17;;;;;;;1.62;0.68;;;18.10;40.90;;;;;;2409302;53;20969;-74
2022/07/18 04:07:44;;;;;;;2.60;0.90;;;18.10;40.90;;;;;;2560394;53;20994;-73
2022/07/18 04:10:10;;;;;;;1.95;0.93;;;18.10;41.00;;;;;;2326558;54;20986;-73
2022/07/18 04:12:55;;;;;;;3.58;0.80;;;18.00;41.00;;;;;;2556067;53;21743;-74
2022/07/18 04:15:22;;;;;;;1.67;0.80;;;18.10;41.40;;;;;;2340153;54;21087;-72
2022/07/18 04:17:48;;;;;;;1.65;0.80;;;18.00;41.70;;;;;;2331073;54;21504;-73
2022/07/18 04:20:15;;;;;;;1.62;0.80;;;18.00;41.10;;;;;;2471844;53;21477;-73
2022/07/18 04:22:49;;;;;;;1.73;0.70;;;18.00;41.20;;;;;;2330009;54;20937;-73
2022/07/18 04:25:17;;;;;;;1.58;0.60;;;18.00;41.40;;;;;;2317094;54;21097;-72
2022/07/18 04:27:44;;;;;;;1.70;0.90;;;17.90;41.20;;;;;;2318399;54;20951;-72
2022/07/18 04:30:10;;;;;;;1.98;0.80;;;18.00;41.40;;;;;;2334659;54;20940;-74
2022/07/18 04:32:37;;;;;;;1.85;0.82;;;17.90;41.40;;;;;;2322444;54;20969;-73
2022/07/18 04:35:07;;;;;;;2.25;0.90;;;17.90;41.50;;;;;;2318964;54;21054;-73
2022/07/18 04:37:35;;;;;;;2.20;1.10;;;17.90;41.60;;;;;;2307771;54;21014;-73
2022/07/18 04:40:01;;;;;;;1.67;0.70;;;17.90;41.70;;;;;;2324945;54;21443;-73
2022/07/18 04:42:28;;;;;;;2.90;0.70;;;17.90;41.80;;;;;;2454041;53;20973;-73
2022/07/18 04:44:54;;;;;;;2.05;0.93;;;17.90;41.80;;;;;;2324703;54;21576;-72
2022/07/18 04:47:21;;;;;;;2.20;0.95;;;17.90;41.90;;;;;;2337266;54;20953;-74
2022/07/18 04:49:49;;;;;;;2.00;1.00;;;17.90;42.00;;;;;;2318928;54;21021;-72
2022/07/18 04:52:16;;;;;;;2.87;1.10;;;18.00;42.20;;;;;;2311176;54;21005;-71
2022/07/18 04:54:42;;;;;;;2.10;0.90;;;18.00;42.30;;;;;;2331225;54;21113;-73
2022/07/18 04:57:11;;;;;;;2.20;0.85;;;18.00;42.30;;;;;;2368181;53;21009;-73
2022/07/18 04:59:38;;;;;;;1.92;0.68;;;18.00;43.00;;;;;;2342751;54;20973;-75
2022/07/18 05:02:04;;;;;;;2.28;0.80;;;18.00;42.40;;;;;;2553824;53;20980;-71
2022/07/18 05:04:31;;;;;;;2.55;1.00;;;18.10;42.50;;;;;;2313802;54;21414;-74
2022/07/18 05:06:57;;;;;;;2.05;0.82;;;18.10;42.60;;;;;;2476954;53;21004;-72
2022/07/18 05:09:24;;;;;;;3.22;1.08;;;18.10;42.60;;;;;;2323607;54;20933;-73
2022/07/18 05:11:50;;;;;;;2.35;1.30;;;18.10;42.70;;;;;;2325129;54;20949;-72
2022/07/18 05:14:17;;;;;;;2.45;1.08;;;18.20;43.00;;;;;;2317187;54;21100;-73
2022/07/18 05:16:43;;;;;;;2.30;0.80;;;18.20;43.00;;;;;;2337956;54;20984;-73
2022/07/18 05:19:10;;;;;;;2.00;0.90;;;18.20;43.00;;;;;;2345127;54;20929;-73
2022/07/18 05:21:37;;;;;;;1.85;0.90;;;18.30;43.20;;;;;;2344331;54;20992;-73
2022/07/18 05:24:04;;;;;;;2.03;1.08;;;18.40;43.30;;;;;;2325987;54;20933;-73
2022/07/18 05:26:30;;;;;;;2.62;1.30;;;18.40;43.40;;;;;;2338350;54;20953;-74
2022/07/18 05:29:03;;;;;;;2.08;1.02;;;18.40;43.50;;;;;;2313602;55;20963;-72
2022/07/18 05:31:30;;;;;;;3.40;0.90;;;18.50;43.60;;;;;;2344449;54;20952;-75
2022/07/18 05:33:57;;;;;;;2.35;0.98;;;18.50;43.60;;;;;;2344748;54;20956;-72
2022/07/18 05:36:23;;;;;;;2.22;0.80;;;18.60;43.70;;;;;;2573360;53;21084;-74
2022/07/18 05:38:50;;;;;;;2.67;1.00;;;18.70;43.70;;;;;;2560202;53;21027;-73
2022/07/18 05:41:18;;;;;;;2.03;0.98;;;18.70;43.70;;;;;;2346876;54;21000;-73
2022/07/18 05:43:44;;;;;;;2.90;0.90;;;18.80;43.70;;;;;;2343240;54;21032;-72
2022/07/18 05:46:11;;;;;;;3.37;0.90;;;18.80;43.70;;;;;;2343302;54;20957;-73
2022/07/18 05:48:42;;;;;;;3.15;0.90;;;18.90;43.80;;;;;;2343308;54;20921;-74
2022/07/18 05:51:08;;;;;;;2.22;0.80;;;19.00;43.80;;;;;;2384638;53;20932;-74
2022/07/18 05:53:34;;;;;;;3.45;1.17;;;19.00;43.80;;;;;;2428727;53;21599;-73
2022/07/18 05:56:01;;;;;;;2.60;0.82;;;19.10;43.90;;;;;;2320440;54;21014;-74
2022/07/18 05:58:28;;;;;;;3.70;1.05;;;19.20;43.90;;;;;;2331686;54;21018;-73
2022/07/18 06:00:55;;;;;;;2.70;0.93;;;19.20;43.80;;;;;;2554460;53;20992;-74
2022/07/18 06:03:21;;;;;;;2.20;1.00;;;19.30;43.90;;;;;;2343857;54;20933;-78
2022/07/18 06:05:50;;;;;;;2.00;0.95;;;19.40;43.80;;;;;;2347615;53;20945;-73
2022/07/18 06:08:19;;;;;;;2.45;1.17;;;19.50;43.90;;;;;;2368718;53;20944;-75
2022/07/18 06:10:48;;;;;;;2.58;1.30;;;19.50;43.80;;;;;;2542705;53;20928;-74
2022/07/18 06:13:14;;;;;;;2.37;1.10;;;19.60;43.90;;;;;;2328334;54;20965;-73
2022/07/18 06:15:41;;;;;;;2.20;0.90;;;19.70;43.90;;;;;;2337966;53;20929;-72
2022/07/18 06:18:10;;;;;;;3.47;1.20;;;19.80;44.00;;;;;;2331027;54;20921;-74
2022/07/18 06:20:36;;;;;;;2.42;1.08;;;19.90;44.10;;;;;;2338547;54;21925;-73
2022/07/18 06:23:02;;;;;;;2.33;1.00;;;20.00;44.30;;;;;;2389623;53;21663;-73
2022/07/18 06:25:30;;;;;;;3.33;1.50;;;20.10;44.40;;;;;;2446744;53;21024;-73
2022/07/18 06:27:57;;;;;;;3.42;1.17;;;20.20;44.40;;;;;;2334190;54;20965;-74
2022/07/18 06:30:24;;;;;;;3.12;1.10;;;20.30;44.40;;;;;;2437994;53;20925;-75
2022/07/18 06:32:50;;;;;;;2.30;1.17;;;20.40;44.50;;;;;;2436023;53;20933;-74
2022/07/18 06:35:18;;;;;;;2.25;1.00;;;20.50;44.50;;;;;;2343958;54;20941;-73
2022/07/18 06:37:44;;;;;;;2.28;1.00;;;20.60;44.50;;;;;;2342955;54;20936;-74
2022/07/18 06:40:13;;;;;;;2.58;0.95;;;20.70;44.50;;;;;;2343807;54;21008;-73
2022/07/18 06:42:42;;;;;;;2.55;1.17;;;20.80;44.50;;;;;;2311856;54;20927;-73
2022/07/18 06:45:10;;;;;;;1.70;0.80;;;20.90;44.50;;;;;;2591305;52;20953;-74
2022/07/18 06:47:37;;;;;;;2.20;0.90;;;21.00;44.30;;;;;;2590114;52;21020;-74
2022/07/18 06:50:06;;;;;;;2.42;1.00;;;21.00;44.20;;;;;;2590448;52;21136;-74
2022/07/18 06:52:32;;;;;;;3.55;1.10;;;21.20;44.20;;;;;;2344266;53;20996;-74
2022/07/18 06:55:00;;;;;;;2.90;1.20;;;21.20;44.10;;;;;;2465392;52;20942;-74
2022/07/18 06:57:29;;;;;;;9.15;1.30;;;21.30;44.20;;;;;;2590762;52;20937;-74
2022/07/18 06:59:56;;;;;;;2.85;1.05;;;21.40;44.20;;;;;;2344216;54;21792;-76
2022/07/18 07:02:24;;;;;;;2.40;1.10;;;21.50;44.20;;;;;;2343827;54;20917;-74
2022/07/18 07:04:50;;;;;;;2.40;1.10;;;21.60;44.10;;;;;;2580913;53;20996;-73
2022/07/18 07:07:17;;;;;;;1.98;1.08;;;21.70;44.20;;;;;;2343485;54;20990;-75
2022/07/18 07:09:43;;;;;;;3.33;1.35;;;21.80;44.20;;;;;;2590655;52;20977;-74
2022/07/18 07:12:10;;;;;;;1.80;1.00;;;21.90;44.30;;;;;;2344033;54;21436;-73
2022/07/18 07:14:37;;;;;;;2.33;1.00;;;22.00;44.20;;;;;;2462043;52;20956;-74
2022/07/18 07:17:04;;;;;;;2.60;1.20;;;22.10;44.00;;;;;;2405720;52;21633;-74
2022/07/18 07:19:32;;;;;;;2.20;1.10;;;22.20;43.90;;;;;;2516853;52;22030;-73
2022/07/18 07:22:01;;;;;;;4.57;0.90;;;22.30;43.90;;;;;;2337229;55;20909;-75
2022/07/18 07:24:28;;;;;;;2.35;0.90;;;22.40;43.80;;;;;;2367208;53;21834;-75
2022/07/18 07:26:54;;;;;;;2.17;1.02;;;22.50;43.70;;;;;;2377212;53;20889;-75
2022/07/18 07:29:22;;;;;;;3.40;0.90;;;22.70;43.70;;;;;;2358839;53;21748;-74
2022/07/18 07:31:48;;;;;;;2.22;0.98;;;22.80;43.60;;;;;;2344007;54;21707;-74
2022/07/18 07:34:15;;;;;;;2.10;0.98;;;22.90;43.60;;;;;;2342940;54;20938;-74
2022/07/18 07:36:41;;;;;;;2.33;1.00;;;23.00;43.60;;;;;;2337768;53;20921;-74
2022/07/18 07:39:08;;;;;;;3.67;0.90;;;23.20;43.50;;;;;;2589838;52;20916;-75
2022/07/18 07:41:34;;;;;;;1.65;0.75;;;23.30;43.50;;;;;;2343200;53;20985;-74
2022/07/18 07:44:01;;;;;;;2.97;0.98;;;23.40;43.50;;;;;;2498087;52;21035;-75
2022/07/18 07:46:29;;;;;;;2.03;0.95;;;23.60;43.60;;;;;;2368086;53;20952;-75
2022/07/18 07:48:55;;;;;;;2.97;1.10;;;23.70;43.50;;;;;;2588472;52;21833;-74
2022/07/18 07:51:21;;;;;;;4.45;1.10;;;23.80;43.70;;;;;;2538278;52;20967;-75
2022/07/18 07:53:51;;;;;;;2.92;1.17;;;24.00;43.60;;;;;;2339230;54;21784;-75
2022/07/18 07:56:19;;;;;;;2.30;1.10;;;24.10;43.70;;;;;;2342111;53;20889;-75
2022/07/18 07:58:46;;;;;;;2.33;1.05;;;24.30;43.90;;;;;;2337505;53;20975;-74
2022/07/18 08:01:12;;;;;;;3.40;1.30;;;24.40;43.80;;;;;;2339916;54;20943;-76
2022/07/18 08:03:39;;;;;;;1.83;0.90;;;24.50;43.50;;;;;;2336330;54;21521;-76
2022/07/18 08:06:05;;;;;;;3.70;0.90;;;24.60;43.30;;;;;;2592735;52;20989;-75
2022/07/18 08:08:32;;;;;;;5.43;1.33;;;24.80;43.20;;;;;;2437614;52;21027;-75
2022/07/18 08:11:01;;;;;;;3.28;1.25;;;24.90;43.20;;;;;;2334221;54;20925;-76
2022/07/18 08:13:27;;;;;;;3.62;0.95;;;25.00;43.30;;;;;;2334591;53;20941;-74
2022/07/18 08:15:54;;;;;;;2.10;1.00;;;25.10;43.30;;;;;;2336018;54;20972;-75
2022/07/18 08:18:23;;;;;;;2.42;0.90;;;25.20;43.10;;;;;;2426655;52;21401;-75
2022/07/18 08:20:50;;;;;;;2.50;1.10;;;25.30;43.00;;;;;;2344257;53;20980;-75
2022/07/18 08:23:17;;;;;;;2.72;1.00;;;25.40;42.80;;;;;;2335288;54;20940;-74
2022/07/18 08:25:47;;;;;;;2.70;1.20;;;25.60;42.80;;;;;;2404038;52;21967;-74
2022/07/18 08:28:13;;;;;;;3.12;0.85;;;25.70;42.80;;;;;;2321924;54;21844;-74
2022/07/18 08:30:41;;;;;;;3.08;1.12;;;25.80;42.50;;;;;;2335315;53;20979;-75
2022/07/18 08:33:09;;;;;;;1.62;0.70;;;25.90;42.40;;;;;;2328458;54;20948;-75
2022/07/18 08:35:35;;;;;;;2.50;1.00;;;26.00;42.20;;;;;;2333848;54;21442;-77
2022/07/18 08:38:02;;;;;;;2.35;1.00;;;26.10;42.10;;;;;;2526153;52;21792;-75
2022/07/18 08:40:29;;;;;;;2.05;0.85;;;26.20;41.80;;;;;;2327042;54;20954;-76
2022/07/18 08:42:58;;;;;;;2.20;0.93;;;26.30;41.60;;;;;;2500449;53;21571;-75
2022/07/18 08:45:56;;;;;;;3.00;0.80;;;26.40;41.30;;;;;;2336547;54;20920;-75
2022/07/18 08:48:26;;;;;;;2.40;1.00;;;26.50;41.10;;;;;;2358093;52;20971;-75
2022/07/18 08:50:52;;;;;;;2.03;0.90;;;26.60;40.90;;;;;;2333321;54;20988;-73
2022/07/18 08:53:19;;;;;;;2.53;1.10;;;26.70;41.00;;;;;;2572852;52;20933;-74
2022/07/18 08:55:46;;;;;;;1.87;1.00;;;26.80;41.00;;;;;;2522767;52;21012;-77
2022/07/18 08:58:14;;;;;;;2.65;0.80;;;26.90;40.90;;;;;;2415047;53;21417;-75
2022/07/18 09:01:10;;;;;;;1.90;0.77;;;27.00;40.80;;;;;;2585209;52;20988;-74
2022/07/18 09:03:38;;;;;;;2.08;0.90;;;27.10;40.60;;;;;;2583971;52;20937;-76
2022/07/18 09:06:12;;;;;;;2.10;0.88;;;27.20;40.40;;;;;;2339280;54;21548;-77
2022/07/18 09:08:39;;;;;;;1.75;0.80;;;27.30;39.90;;;;;;2586212;52;21080;-75
2022/07/18 09:11:10;;;;;;;1.75;0.80;;;27.40;40.20;;;;;;2380757;53;20948;-75
2022/07/18 09:13:44;;;;;;;2.25;1.10;;;27.50;40.20;;;;;;2341637;54;21486;-74
2022/07/18 09:16:12;;;;;;;2.15;0.88;;;27.60;40.20;;;;;;2342127;54;21481;-74
2022/07/18 09:18:45;;;;;;;1.90;0.90;;;27.70;40.10;;;;;;2345243;53;20989;-75
2022/07/18 09:21:20;;;;;;;3.08;1.00;;;27.90;39.80;;;;;;2332882;54;20979;-75
2022/07/18 09:23:52;;;;;;;2.87;1.12;;;28.00;39.30;;;;;;2425697;52;20972;-77
2022/07/18 09:26:34;;;;;;;;;;;28.10;39.20;;;;;;2395676;53;20986;-75
2022/07/18 09:29:01;;;;;;;1.75;0.62;;;28.10;39.00;;;;;;2340060;53;20670;-75
2022/07/18 09:31:50;;;;;;;2.17;0.77;;;28.20;38.90;;;;;;2339911;54;21363;-75
2022/07/18 09:34:32;;;;;;;3.50;0.80;;;28.30;38.80;;;;;;2585441;52;21010;-75
2022/07/18 09:36:59;;;;;;;2.45;0.85;;;28.40;38.30;;;;;;2578775;52;21461;-75
2022/07/18 09:39:27;;;;;;;2.30;1.10;;;28.50;38.50;;;;;;2582194;52;20948;-75
2022/07/18 09:41:53;;;;;;;2.00;0.80;;;28.60;38.30;;;;;;2336238;54;21389;-75
2022/07/18 09:44:21;;;;;;;2.95;0.80;;;28.70;38.20;;;;;;2508511;52;20996;-75
2022/07/18 09:47:03;;;;;;;3.35;0.90;;;28.80;38.20;;;;;;2338089;53;20943;-76
2022/07/18 09:49:30;;;;;;;;;;;28.90;37.70;;;;;;2343586;54;21018;-75
2022/07/18 09:52:04;;;;;;;8.40;0.90;;;29.00;38.00;;;;;;2336960;54;20069;-75
2022/07/18 09:54:42;;;;;;;3.60;1.20;;;29.10;37.60;;;;;;2342170;54;20985;-74
2022/07/18 09:57:23;;;;;;;3.15;0.98;;;29.20;37.40;;;;;;2546252;54;20945;-75
2022/07/18 09:59:50;;;;;;;2.12;0.82;;;29.30;37.50;;;;;;2315819;54;20943;-76
2022/07/18 10:02:16;;;;;;;1.37;0.65;;;29.40;37.40;;;;;;2315571;53;20975;-75
2022/07/18 10:04:43;;;;;;;4.95;0.90;;;29.50;37.30;;;;;;2315863;54;20966;-75
2022/07/18 10:07:10;;;;;;;1.62;0.70;;;29.60;37.30;;;;;;2315293;54;20987;-76
2022/07/18 10:09:38;;;;;;;2.08;0.85;;;29.70;37.10;;;;;;2316012;54;20971;-76
2022/07/18 10:12:07;;;;;;;4.72;1.00;;;29.80;36.80;;;;;;2316904;54;21050;-75
2022/07/18 10:14:52;;;;;;;2.10;0.93;;;29.90;36.60;;;;;;2317472;54;20988;-77
2022/07/18 10:17:20;;;;;;;3.55;0.90;;;30.00;36.10;;;;;;2304250;55;21107;-76
2022/07/18 10:19:46;;;;;;;2.37;0.88;;;30.10;36.50;;;;;;2317440;54;21724;-75
2022/07/18 10:22:13;;;;;;;3.12;0.85;;;30.20;36.40;;;;;;2317453;54;20967;-75
2022/07/18 10:24:40;;;;;;;2.60;1.02;;;30.30;36.20;;;;;;2317577;54;20984;-75
2022/07/18 10:27:17;;;;;;;2.62;1.10;;;30.40;36.10;;;;;;2557903;53;20968;-75
2022/07/18 10:30:09;;;;;;;2.47;0.90;;;30.60;35.60;;;;;;2332163;54;21050;-76
2022/07/18 10:32:35;;;;;;;2.40;0.68;;;30.60;35.40;;;;;;2322054;55;20923;-76
2022/07/18 10:35:02;;;;;;;2.90;0.90;;;30.70;35.60;;;;;;2320085;54;20967;-75
2022/07/18 10:37:31;;;;;;;4.07;0.73;;;30.80;35.50;;;;;;2316145;54;20947;-75
2022/07/18 10:40:20;;;;;;;3.97;1.00;;;30.90;35.40;;;;;;2317038;54;20935;-75
2022/07/18 10:42:52;;;;;;;1.90;0.77;;;31.00;35.10;;;;;;2313623;54;20991;-75
2022/07/18 10:45:44;;;;;;;2.05;0.75;;;31.10;35.00;;;;;;2318049;54;21424;-72
2022/07/18 10:48:47;;;;;;;4.40;0.77;;;31.20;34.50;;;;;;2316734;54;20923;-78
2022/07/18 10:51:17;;;;;;;3.28;1.00;;;31.40;34.50;;;;;;2318036;54;20927;-75
2022/07/18 10:53:57;;;;;;;3.50;1.00;;;31.40;34.60;;;;;;2318575;53;21006;-75
2022/07/18 10:58:16;;;;;;;1.70;0.80;;;31.60;34.00;;;;;;2313073;54;20953;-75
2022/07/18 11:00:42;;;;;;;1.42;0.60;;;31.70;34.30;;;;;;2317088;54;20905;-74
2022/07/18 11:03:12;;;;;;;2.40;0.70;;;31.80;34.10;;;;;;2473942;53;21557;-75
2022/07/18 11:05:45;;;;;;;2.40;0.85;;;31.90;34.10;;;;;;2317245;54;21383;-75
2022/07/18 11:08:17;;;;;;;1.98;0.90;;;32.00;33.70;;;;;;2368936;53;20964;-75
2022/07/18 11:11:06;;;;;;;1.87;0.85;;;32.10;33.50;;;;;;2314057;54;20936;-74
2022/07/18 11:13:39;;;;;;;5.20;0.85;;;32.10;33.10;;;;;;2346657;53;20978;-74
2022/07/18 11:16:12;;;;;;;2.00;0.70;;;32.30;33.40;;;;;;2504132;53;21751;-75
2022/07/18 11:20:18;;;;;;;1.98;0.90;;;32.40;33.20;;;;;;2438454;53;21914;-73
2022/07/18 11:22:48;;;;;;;2.08;0.80;;;32.50;33.00;;;;;;2344852;54;21430;-75
2022/07/18 11:25:16;;;;;;;1.83;0.80;;;32.50;32.80;;;;;;2343175;54;20944;-76
2022/07/18 11:27:53;;;;;;;1.52;0.75;;;32.70;32.70;;;;;;2314352;54;21024;-74
2022/07/18 11:30:20;;;;;;;2.65;0.80;;;32.80;32.50;;;;;;2391675;53;21491;-74
2022/07/18 11:32:46;;;;;;;1.52;0.75;;;32.80;32.10;;;;;;2323537;54;21028;-73
2022/07/18 11:35:14;;;;;;;2.42;1.00;;;32.90;31.90;;;;;;2333806;53;21241;-74
2022/07/18 11:37:49;;;;;;;2.53;0.90;;;33.00;31.80;;;;;;2435113;53;21029;-74
2022/07/18 11:40:16;;;;;;;2.53;0.88;;;33.10;31.80;;;;;;2545857;54;21436;-75
2022/07/18 11:42:46;;;;;;;1.95;0.98;;;33.10;31.60;;;;;;2573675;53;20928;-73
2022/07/18 11:45:14;;;;;;;1.70;0.80;;;33.20;31.30;;;;;;2406114;53;20948;-73
2022/07/18 11:47:49;;;;;;;2.15;0.90;;;33.30;31.20;;;;;;2340558;55;21651;-74
2022/07/18 11:50:17;;;;;;;2.75;0.90;;;33.40;30.90;;;;;;2339305;55;21374;-74
2022/07/18 11:52:44;;;;;;;2.70;0.88;;;33.40;31.00;;;;;;2339849;54;21373;-76
2022/07/18 11:55:14;;;;;;;1.80;0.80;;;33.50;30.90;;;;;;2343991;53;21537;-74
2022/07/18 11:57:41;;;;;;;2.12;0.82;;;33.50;30.50;;;;;;2319745;53;21000;-74
2022/07/18 12:00:19;;;;;;;1.80;0.88;;;33.60;30.70;;;;;;2583562;53;20948;-74
2022/07/18 12:02:45;;;;;;;1.52;0.70;;;33.70;30.60;;;;;;2415293;53;21303;-74
2022/07/18 12:05:12;;;;;;;2.20;1.00;;;33.70;30.70;;;;;;2572002;53;20928;-74
2022/07/18 12:07:38;;;;;;;1.83;0.90;;;33.80;30.60;;;;;;2344715;54;20933;-74
2022/07/18 12:10:15;;;;;;;2.58;0.93;;;33.90;30.30;;;;;;2590299;53;21052;-74
2022/07/18 12:12:42;;;;;;;2.37;0.98;;;34.00;29.80;;;;;;2398770;53;20944;-73
2022/07/18 12:15:12;;;;;;;2.22;1.00;;;34.00;30.00;;;;;;2381336;53;20917;-71
2022/07/18 12:17:46;;;;;;;1.65;0.82;;;34.00;30.00;;;;;;2344474;53;21753;-73
2022/07/18 12:20:15;;;;;;;2.00;0.90;;;34.10;29.80;;;;;;2386153;53;21001;-74
2022/07/18 12:23:07;;;;;;;4.20;1.30;;;34.20;30.00;;;;;;2438679;53;20948;-74
2022/07/18 12:25:54;;;;;;;2.25;0.93;;;34.30;29.30;;;;;;2465921;53;21037;-74
2022/07/18 12:28:21;;;;;;;4.12;1.15;;;34.30;29.10;;;;;;2330354;54;20992;-74
2022/07/18 12:30:48;;;;;;;2.17;0.88;;;34.30;29.50;;;;;;2358641;53;21521;-74
2022/07/18 12:33:14;;;;;;;3.12;0.90;;;34.40;29.40;;;;;;2334371;54;20929;-78
2022/07/18 12:35:40;;;;;;;2.70;0.90;;;34.40;29.30;;;;;;2376666;53;20956;-74
2022/07/18 12:38:11;;;;;;;2.20;0.93;;;34.40;29.10;;;;;;2325596;54;21071;-74
2022/07/18 12:40:46;;;;;;;2.55;0.80;;;34.50;29.10;;;;;;2355285;53;20949;-78
2022/07/18 12:43:23;;;;;;;2.42;1.17;;;34.50;29.20;;;;;;2317787;55;21808;-74
2022/07/18 12:45:50;;;;;;;1.90;0.88;;;34.60;29.00;;;;;;2318587;55;21405;-78
2022/07/18 12:48:16;;;;;;;2.08;1.00;;;34.60;28.90;;;;;;2330932;55;21055;-74
2022/07/18 12:50:44;;;;;;;3.00;1.15;;;34.60;28.70;;;;;;2460726;53;21015;-74
2022/07/18 12:53:10;;;;;;;2.45;1.02;;;34.70;28.90;;;;;;2328926;55;21405;-76
2022/07/18 12:55:37;;;;;;;3.08;0.93;;;34.70;28.90;;;;;;2557648;53;21733;-75
2022/07/18 12:58:05;;;;;;;2.33;1.05;;;34.80;28.70;;;;;;2339588;55;20916;-76
2022/07/18 13:00:32;;;;;;;2.45;1.23;;;34.80;28.50;;;;;;2493348;53;22958;-74
2022/07/18 13:02:58;;;;;;;3.47;1.20;;;34.90;28.30;;;;;;2313605;54;21106;-74